createdAt,value
2022-09-07T00:02:20.856Z,68.40
2022-09-07T00:04:47.594Z,68.99
2022-09-07T00:07:14.068Z,68.67
2022-09-07T00:09:40.699Z,69.29
2022-09-07T00:12:07.371Z,68.56
2022-09-07T00:14:34.769Z,68.93
2022-09-07T00:17:01.242Z,69.26
2022-09-07T00:19:27.759Z,69.05
2022-09-07T00:21:54.239Z,69.80
2022-09-07T00:24:20.787Z,69.33
2022-09-07T00:26:47.326Z,69.57
2022-09-07T00:29:13.978Z,69.11
2022-09-07T00:31:40.614Z,69.41
2022-09-07T00:34:07.265Z,69.23
2022-09-07T00:36:33.916Z,69.47
2022-09-07T00:39:00.993Z,69.34
2022-09-07T00:41:27.727Z,69.51
2022-09-07T00:43:57.096Z,69.13
2022-09-07T00:46:26.750Z,69.88
2022-09-07T00:49:08.033Z,69.77
2022-09-07T00:51:46.201Z,69.52
2022-09-07T00:54:24.237Z,69.31
2022-09-07T00:56:54.796Z,69.36
2022-09-07T00:59:29.146Z,69.74
2022-09-07T01:01:55.931Z,69.55
2022-09-07T01:04:23.689Z,70.26
2022-09-07T01:06:50.758Z,70.54
2022-09-07T01:09:22.191Z,70.63
2022-09-07T01:11:51.151Z,70.43
2022-09-07T01:14:28.915Z,71.36
2022-09-07T01:17:15.392Z,71.33
2022-09-07T01:20:17.739Z,71.07
2022-09-07T01:22:53.321Z,71.33
2022-09-07T01:25:43.626Z,71.04
2022-09-07T01:28:12.205Z,71.90
2022-09-07T01:30:42.171Z,71.57
2022-09-07T01:33:34.273Z,71.14
2022-09-07T01:36:35.707Z,71.76
2022-09-07T01:39:04.490Z,71.59
2022-09-07T01:41:39.071Z,71.82
2022-09-07T01:44:23.622Z,71.73
2022-09-07T01:46:59.017Z,72.68
2022-09-07T01:49:43.357Z,72.70
2022-09-07T01:52:32.112Z,73.22
2022-09-07T01:55:04.411Z,73.36
2022-09-07T01:57:44.526Z,73.08
2022-09-07T02:00:15.550Z,73.51
2022-09-07T02:02:48.840Z,73.85
2022-09-07T02:05:23.840Z,73.41
2022-09-07T02:08:13.424Z,73.57
2022-09-07T02:10:45.327Z,73.63
2022-09-07T02:13:23.662Z,73.43
2022-09-07T02:16:01.899Z,73.41
2022-09-07T02:18:36.391Z,73.90
2022-09-07T02:21:08.533Z,73.78
2022-09-07T02:23:50.961Z,73.41
2022-09-07T02:26:21.856Z,74.26
2022-09-07T02:28:48.842Z,73.99
2022-09-07T02:31:18.349Z,73.82
2022-09-07T02:33:45.107Z,73.62
2022-09-07T02:36:16.219Z,73.93
2022-09-07T02:38:44.431Z,74.08
2022-09-07T02:41:49.650Z,73.42
2022-09-07T02:44:21.271Z,74.03
2022-09-07T02:47:07.305Z,74.20
2022-09-07T02:49:55.366Z,73.81
2022-09-07T02:52:31.171Z,74.01
2022-09-07T02:55:24.427Z,73.91
2022-09-07T02:58:03.034Z,74.17
2022-09-07T03:00:34.109Z,74.71
2022-09-07T03:03:15.617Z,74.81
2022-09-07T03:06:04.716Z,75.39
2022-09-07T03:09:05.517Z,75.59
2022-09-07T03:11:32.389Z,75.61
2022-09-07T03:14:12.106Z,75.52
2022-09-07T03:16:41.397Z,75.56
2022-09-07T03:19:11.519Z,75.68
2022-09-07T03:21:38.164Z,75.16
2022-09-07T03:24:05.336Z,75.67
2022-09-07T03:26:31.945Z,75.27
2022-09-07T03:28:58.926Z,75.04
2022-09-07T03:31:25.976Z,75.57
2022-09-07T03:33:52.565Z,75.83
2022-09-07T03:36:19.105Z,75.55
2022-09-07T03:38:45.640Z,76.85
2022-09-07T03:41:14.708Z,76.03
2022-09-07T03:43:41.404Z,76.09
2022-09-07T03:46:10.518Z,76.16
2022-09-07T03:48:41.503Z,76.05
2022-09-07T03:51:10.416Z,75.92
2022-09-07T03:53:40.128Z,76.23
2022-09-07T03:56:10.556Z,76.37
2022-09-07T03:58:37.612Z,77.18
2022-09-07T04:01:09.176Z,77.16
2022-09-07T04:03:36.258Z,76.60
2022-09-07T04:06:04.235Z,76.79
2022-09-07T04:08:33.003Z,76.83
2022-09-07T04:11:01.600Z,76.97
2022-09-07T04:13:29.595Z,77.28
2022-09-07T04:15:56.679Z,76.58
2022-09-07T04:18:26.091Z,76.59
2022-09-07T04:20:52.809Z,77.41
2022-09-07T04:23:20.137Z,76.96
2022-09-07T04:25:51.616Z,77.02
2022-09-07T04:28:19.872Z,77.16
2022-09-07T04:30:47.517Z,76.65
2022-09-07T04:33:14.713Z,76.37
2022-09-07T04:35:42.601Z,76.55
2022-09-07T04:38:13.745Z,76.18
2022-09-07T04:40:43.876Z,75.88
2022-09-07T04:43:13.029Z,76.19
2022-09-07T04:45:40.248Z,75.79
2022-09-07T04:48:07.394Z,75.88
2022-09-07T04:50:34.108Z,75.79
2022-09-07T04:53:00.836Z,76.00
2022-09-07T04:55:27.569Z,75.99
2022-09-07T04:57:54.230Z,75.90
2022-09-07T05:00:20.779Z,76.45
2022-09-07T05:02:47.544Z,76.67
2022-09-07T05:05:14.452Z,76.33
2022-09-07T05:07:41.178Z,76.48
2022-09-07T05:10:08.457Z,76.02
2022-09-07T05:12:37.257Z,76.02
2022-09-07T05:15:05.109Z,76.01
2022-09-07T05:17:31.785Z,76.00
2022-09-07T05:19:58.508Z,76.05
2022-09-07T05:22:29.164Z,75.85
2022-09-07T05:24:55.955Z,75.51
2022-09-07T05:27:22.841Z,75.51
2022-09-07T05:30:07.046Z,75.31
2022-09-07T05:32:33.880Z,75.57
2022-09-07T05:35:00.567Z,74.93
2022-09-07T05:37:29.750Z,75.22
2022-09-07T05:39:56.974Z,74.72
2022-09-07T05:42:23.963Z,75.13
2022-09-07T05:44:50.606Z,74.79
2022-09-07T05:47:17.953Z,75.03
2022-09-07T05:49:51.032Z,74.84
2022-09-07T05:52:19.579Z,75.12
2022-09-07T05:54:47.336Z,74.46
2022-09-07T05:57:15.531Z,74.28
2022-09-07T05:59:42.240Z,73.88
2022-09-07T06:02:13.706Z,74.19
2022-09-07T06:04:40.569Z,73.76
2022-09-07T06:07:23.781Z,73.48
2022-09-07T06:12:37.201Z,72.39
2022-09-07T06:15:05.391Z,72.41
2022-09-07T06:17:32.255Z,72.48
2022-09-07T06:20:00.387Z,72.48
2022-09-07T06:22:30.756Z,72.34
2022-09-07T06:24:58.201Z,71.84
2022-09-07T06:27:26.956Z,72.68
2022-09-07T06:29:59.140Z,72.17
2022-09-07T06:32:44.561Z,72.08
2022-09-07T06:35:12.477Z,72.00
2022-09-07T06:37:44.319Z,72.28
2022-09-07T06:40:14.492Z,72.05
2022-09-07T06:42:41.076Z,71.96
2022-09-07T06:45:10.109Z,71.60
2022-09-07T06:47:38.367Z,71.32
2022-09-07T06:50:05.220Z,70.95
2022-09-07T06:55:21.236Z,71.21
2022-09-07T06:57:54.486Z,70.93
2022-09-07T07:00:21.387Z,70.85
2022-09-07T07:02:48.148Z,71.16
2022-09-07T07:05:17.798Z,71.53
2022-09-07T07:07:44.533Z,71.58
2022-09-07T07:10:23.719Z,71.66
2022-09-07T07:12:53.054Z,71.63
2022-09-07T07:15:22.062Z,71.60
2022-09-07T07:17:58.100Z,72.10
2022-09-07T07:20:25.974Z,72.32
2022-09-07T07:22:55.707Z,72.84
2022-09-07T07:25:23.005Z,72.86
2022-09-07T07:27:52.741Z,72.99
2022-09-07T07:30:19.660Z,72.72
2022-09-07T07:32:47.059Z,72.83
2022-09-07T07:35:14.295Z,72.81
2022-09-07T07:37:44.113Z,73.05
2022-09-07T07:40:24.416Z,72.86
2022-09-07T07:42:53.188Z,72.28
2022-09-07T07:48:14.531Z,68.71
2022-09-07T07:50:43.748Z,67.29
2022-09-07T07:56:03.271Z,65.23
2022-09-07T07:58:31.793Z,64.79
2022-09-07T08:01:08.461Z,64.68
2022-09-07T08:03:38.263Z,63.93
2022-09-07T08:06:10.137Z,63.66
2022-09-07T08:08:41.051Z,62.99
2022-09-07T08:11:11.039Z,63.28
2022-09-07T08:13:46.978Z,62.13
2022-09-07T08:16:13.822Z,61.69
2022-09-07T08:18:41.029Z,61.07
2022-09-07T08:21:12.972Z,61.09
2022-09-07T08:23:40.255Z,60.46
2022-09-07T08:26:08.026Z,60.23
2022-09-07T08:28:38.252Z,60.46
2022-09-07T08:31:07.280Z,59.18
2022-09-07T08:33:38.322Z,59.20
2022-09-07T08:36:08.807Z,57.63
2022-09-07T08:38:36.643Z,57.23
2022-09-07T08:41:26.636Z,56.45
2022-09-07T08:43:57.192Z,55.75
2022-09-07T08:46:47.685Z,55.17
2022-09-07T08:49:36.831Z,55.33
2022-09-07T08:52:26.082Z,53.96
2022-09-07T08:55:12.082Z,54.12
2022-09-07T08:57:44.173Z,54.49
2022-09-07T09:00:16.670Z,53.75
2022-09-07T09:02:46.445Z,53.15
2022-09-07T09:05:50.228Z,52.80
2022-09-07T09:09:05.026Z,51.06
2022-09-07T09:11:53.420Z,51.37
2022-09-07T09:14:57.118Z,51.16
2022-09-07T09:17:35.659Z,51.32
2022-09-07T09:20:20.814Z,51.13
2022-09-07T09:22:50.436Z,49.51
2022-09-07T09:25:21.369Z,49.08
2022-09-07T09:27:49.400Z,49.24
2022-09-07T09:30:21.746Z,47.66
2022-09-07T09:33:14.193Z,48.11
2022-09-07T09:35:45.433Z,47.25
2022-09-07T09:38:29.262Z,46.55
2022-09-07T09:40:58.083Z,46.42
2022-09-07T09:43:30.373Z,45.66
2022-09-07T09:46:13.658Z,46.06
2022-09-07T09:48:42.879Z,44.39
2022-09-07T09:54:19.605Z,42.85
2022-09-07T09:56:50.066Z,43.61
2022-09-07T10:05:37.374Z,41.28
2022-09-07T10:08:17.895Z,42.98
2022-09-07T10:10:55.533Z,43.48
2022-09-07T10:13:36.882Z,44.29
2022-09-07T10:16:06.587Z,44.69
2022-09-07T10:18:39.920Z,44.84
2022-09-07T10:21:27.866Z,44.29
2022-09-07T10:24:12.633Z,44.62
2022-09-07T10:26:40.483Z,43.24
2022-09-07T10:29:15.232Z,43.83
2022-09-07T10:32:00.993Z,42.92
2022-09-07T10:34:27.594Z,42.94
2022-09-07T10:37:09.574Z,41.33
2022-09-07T10:39:42.951Z,41.18
2022-09-07T10:42:09.766Z,41.56
2022-09-07T10:45:05.797Z,40.35
2022-09-07T10:48:09.962Z,39.03
2022-09-07T10:50:44.679Z,40.03
2022-09-07T10:53:47.643Z,41.24
2022-09-07T10:56:52.659Z,41.72
2022-09-07T10:59:22.101Z,41.70
2022-09-07T11:01:58.770Z,42.86
2022-09-07T11:04:36.934Z,43.11
2022-09-07T11:07:42.370Z,43.34
2022-09-07T11:10:50.625Z,42.46
2022-09-07T11:13:22.931Z,42.77
2022-09-07T11:15:55.317Z,41.47
2022-09-07T11:18:35.306Z,40.14
2022-09-07T11:21:06.491Z,39.52
2022-09-07T11:23:58.099Z,38.23
2022-09-07T11:26:53.827Z,37.85
2022-09-07T11:29:35.555Z,38.54
2022-09-07T11:32:18.116Z,38.81
2022-09-07T11:34:59.020Z,39.27
2022-09-07T11:37:30.897Z,39.56
2022-09-07T11:40:18.177Z,41.58
2022-09-07T11:42:59.650Z,42.45
2022-09-07T11:45:40.283Z,41.31
2022-09-07T11:48:19.876Z,40.68
2022-09-07T11:50:54.238Z,39.76
2022-09-07T11:53:39.345Z,40.13
2022-09-07T11:56:36.283Z,40.89
2022-09-07T11:59:26.590Z,39.63
2022-09-07T12:02:55.254Z,40.28
2022-09-07T12:05:54.146Z,41.34
2022-09-07T12:08:43.726Z,40.36
2022-09-07T12:11:45.140Z,40.67
2022-09-07T12:14:18.045Z,39.62
2022-09-07T12:16:54.749Z,39.47
2022-09-07T12:19:26.603Z,40.38
2022-09-07T12:21:53.032Z,40.71
2022-09-07T12:24:46.812Z,41.48
2022-09-07T12:27:22.536Z,41.20
2022-09-07T12:30:10.374Z,41.19
2022-09-07T12:32:54.848Z,41.45
2022-09-07T12:35:31.939Z,40.25
2022-09-07T12:38:24.247Z,39.79
2022-09-07T12:41:04.000Z,39.01
2022-09-07T12:43:31.703Z,38.30
2022-09-07T12:46:00.829Z,38.27
2022-09-07T12:48:50.153Z,38.15
2022-09-07T12:54:45.521Z,36.90
2022-09-07T12:57:41.212Z,37.70
2022-09-07T13:00:35.907Z,38.00
2022-09-07T13:03:55.100Z,38.15
2022-09-07T13:09:31.541Z,38.79
2022-09-07T13:15:33.224Z,39.06
2022-09-07T13:18:00.732Z,39.32
2022-09-07T13:20:34.795Z,40.12
2022-09-07T13:23:26.293Z,40.49
2022-09-07T13:25:55.332Z,39.78
2022-09-07T13:28:49.183Z,38.70
2022-09-07T13:31:40.036Z,38.07
2022-09-07T13:34:34.573Z,38.27
2022-09-07T13:37:03.192Z,37.23
2022-09-07T13:39:44.585Z,36.76
2022-09-07T13:42:37.860Z,35.99
2022-09-07T13:45:07.480Z,36.23
2022-09-07T13:48:06.395Z,36.38
2022-09-07T13:51:06.010Z,36.89
2022-09-07T13:53:48.365Z,37.87
2022-09-07T13:56:33.303Z,39.01
2022-09-07T13:59:10.854Z,38.89
2022-09-07T14:01:45.309Z,39.98
2022-09-07T14:04:22.677Z,40.08
2022-09-07T14:06:49.169Z,40.33
2022-09-07T14:09:18.634Z,39.86
2022-09-07T14:11:46.384Z,39.40
2022-09-07T14:14:22.068Z,39.13
2022-09-07T14:16:59.124Z,39.28
2022-09-07T14:19:51.957Z,39.43
2022-09-07T14:22:41.947Z,38.29
2022-09-07T14:25:17.857Z,37.97
2022-09-07T14:27:46.953Z,38.36
2022-09-07T14:30:33.286Z,38.05
2022-09-07T14:33:55.854Z,38.25
2022-09-07T14:36:47.984Z,38.13
2022-09-07T14:39:18.995Z,37.52
2022-09-07T14:41:46.520Z,36.28
2022-09-07T14:44:45.381Z,35.96
2022-09-07T14:47:29.250Z,33.53
2022-09-07T14:49:58.215Z,34.06
2022-09-07T14:52:38.016Z,33.92
2022-09-07T14:55:32.478Z,34.57
2022-09-07T14:58:14.058Z,34.12
2022-09-07T15:00:41.219Z,34.20
2022-09-07T15:03:34.455Z,33.63
2022-09-07T15:06:06.299Z,34.38
2022-09-07T15:08:47.535Z,33.58
2022-09-07T15:11:39.527Z,34.38
2022-09-07T15:14:19.666Z,34.58
2022-09-07T15:19:50.365Z,34.62
2022-09-07T15:22:19.940Z,34.71
2022-09-07T15:24:47.584Z,34.67
2022-09-07T15:27:26.716Z,34.01
2022-09-07T15:29:53.300Z,34.41
2022-09-07T15:32:20.070Z,33.63
2022-09-07T15:34:46.951Z,34.07
2022-09-07T15:40:01.861Z,32.25
2022-09-07T15:45:16.062Z,33.09
2022-09-07T15:47:52.176Z,32.50
2022-09-07T15:50:19.486Z,32.61
2022-09-07T15:52:46.550Z,32.38
2022-09-07T15:55:13.550Z,31.51
2022-09-07T15:58:10.666Z,32.18
2022-09-07T16:00:27.050Z,29.76
2022-09-07T16:03:09.419Z,28.00
2022-09-07T16:05:40.271Z,27.08
2022-09-07T16:10:55.553Z,25.86
2022-09-07T16:13:26.667Z,24.15
2022-09-07T16:15:53.313Z,26.00
2022-09-07T16:18:20.376Z,26.85
2022-09-07T16:20:47.325Z,28.59
2022-09-07T16:23:16.393Z,29.39
2022-09-07T16:25:58.671Z,31.18
2022-09-07T16:28:26.712Z,31.94
2022-09-07T16:30:56.618Z,32.48
2022-09-07T16:33:31.234Z,32.66
2022-09-07T16:36:07.496Z,32.68
2022-09-07T16:38:45.533Z,32.75
2022-09-07T16:41:26.538Z,33.39
2022-09-07T16:43:54.634Z,33.88
2022-09-07T16:46:23.424Z,34.11
2022-09-07T16:48:56.279Z,34.09
2022-09-07T16:51:25.428Z,34.32
2022-09-07T16:53:54.280Z,34.47
2022-09-07T16:56:23.554Z,34.34
2022-09-07T16:58:56.464Z,34.81
2022-09-07T17:01:28.961Z,35.19
2022-09-07T17:03:58.419Z,35.66
2022-09-07T17:06:29.675Z,35.29
2022-09-07T17:08:58.308Z,35.53
2022-09-07T17:11:30.974Z,35.39
2022-09-07T17:13:59.044Z,35.18
2022-09-07T17:16:34.824Z,36.68
2022-09-07T17:21:57.986Z,37.31
2022-09-07T17:24:24.576Z,37.67
2022-09-07T17:26:51.024Z,37.46
2022-09-07T17:29:17.610Z,37.83
2022-09-07T17:34:36.656Z,38.00
2022-09-07T17:37:03.256Z,37.49
2022-09-07T17:39:31.478Z,37.33
2022-09-07T17:42:01.268Z,37.22
2022-09-07T17:44:35.433Z,37.94
2022-09-07T17:47:05.109Z,38.30
2022-09-07T17:49:34.828Z,38.33
2022-09-07T17:52:01.758Z,37.49
2022-09-07T17:54:30.957Z,38.11
2022-09-07T17:56:57.537Z,38.59
2022-09-07T18:02:15.826Z,38.85
2022-09-07T18:04:42.961Z,39.63
2022-09-07T18:07:17.619Z,39.32
2022-09-07T18:09:44.561Z,39.71
2022-09-07T18:12:11.308Z,39.32
2022-09-07T18:14:38.018Z,39.09
2022-09-07T18:17:05.386Z,39.42
2022-09-07T18:19:32.142Z,40.05
2022-09-07T18:21:59.074Z,39.71
2022-09-07T18:24:41.700Z,39.73
2022-09-07T18:27:10.394Z,40.16
2022-09-07T18:29:37.779Z,40.37
2022-09-07T18:32:08.647Z,40.56
2022-09-07T18:34:36.496Z,40.07
2022-09-07T18:37:03.079Z,40.57
2022-09-07T18:39:33.480Z,40.16
2022-09-07T18:42:00.133Z,40.07
2022-09-07T18:47:23.303Z,40.74
2022-09-07T18:49:54.896Z,40.79
2022-09-07T18:55:09.994Z,41.46
2022-09-07T18:57:43.312Z,42.22
2022-09-07T19:00:12.587Z,41.98
2022-09-07T19:02:42.421Z,41.99
2022-09-07T19:07:59.520Z,42.48
2022-09-07T19:10:26.023Z,42.58
2022-09-07T19:12:52.536Z,43.45
2022-09-07T19:15:20.510Z,43.44
2022-09-07T19:17:47.034Z,44.37
2022-09-07T19:20:13.668Z,43.58
2022-09-07T19:22:42.725Z,43.65
2022-09-07T19:25:09.854Z,44.23
2022-09-07T19:27:39.688Z,43.88
2022-09-07T19:30:06.467Z,43.91
2022-09-07T19:32:33.038Z,44.48
2022-09-07T19:34:59.770Z,45.06
2022-09-07T19:37:27.674Z,45.38
2022-09-07T19:39:57.570Z,45.32
2022-09-07T19:42:24.383Z,45.95
2022-09-07T19:44:54.416Z,46.17
2022-09-07T19:47:24.650Z,46.35
2022-09-07T19:49:52.322Z,45.89
2022-09-07T19:52:19.042Z,46.96
2022-09-07T19:54:48.936Z,46.89
2022-09-07T19:57:15.741Z,47.23
2022-09-07T19:59:42.323Z,47.48
2022-09-07T20:02:30.575Z,47.28
2022-09-07T20:04:58.886Z,47.34
2022-09-07T20:07:25.522Z,47.19
2022-09-07T20:09:55.159Z,47.81
2022-09-07T20:12:24.446Z,47.53
2022-09-07T20:14:53.322Z,46.98
2022-09-07T20:17:19.790Z,47.50
2022-09-07T20:19:46.328Z,47.77
2022-09-07T20:22:12.730Z,47.90
2022-09-07T20:24:39.965Z,47.41
2022-09-07T20:27:06.708Z,47.50
2022-09-07T20:29:37.527Z,47.33
2022-09-07T20:32:04.341Z,47.15
2022-09-07T20:34:33.556Z,47.74
2022-09-07T20:37:00.825Z,48.05
2022-09-07T20:39:29.947Z,49.67
2022-09-07T20:41:56.536Z,49.23
2022-09-07T20:44:23.296Z,49.60
2022-09-07T20:46:49.913Z,49.79
2022-09-07T20:49:16.463Z,49.57
2022-09-07T20:51:43.112Z,49.70
2022-09-07T20:54:11.217Z,49.84
2022-09-07T20:56:37.933Z,50.27
2022-09-07T20:59:04.621Z,49.65
2022-09-07T21:01:35.030Z,49.73
2022-09-07T21:04:02.009Z,50.03
2022-09-07T21:06:32.781Z,53.01
2022-09-07T21:09:02.868Z,53.73
2022-09-07T21:11:33.784Z,51.58
2022-09-07T21:14:07.230Z,50.79
2022-09-07T21:16:37.286Z,50.38
2022-09-07T21:19:05.698Z,52.26
2022-09-07T21:21:38.539Z,51.89
2022-09-07T21:24:19.809Z,53.08
2022-09-07T21:26:47.765Z,52.95
2022-09-07T21:29:20.426Z,52.30
2022-09-07T21:31:47.747Z,52.93
2022-09-07T21:34:15.180Z,52.52
2022-09-07T21:36:44.704Z,53.43
2022-09-07T21:39:14.456Z,52.71
2022-09-07T21:41:42.542Z,53.34
2022-09-07T21:44:14.109Z,54.11
2022-09-07T21:46:43.623Z,54.23
2022-09-07T21:49:11.338Z,55.90
2022-09-07T21:51:38.293Z,53.36
2022-09-07T21:54:05.044Z,54.22
2022-09-07T21:56:33.611Z,54.75
2022-09-07T21:59:01.696Z,54.74
2022-09-07T22:01:29.702Z,54.74
2022-09-07T22:04:04.547Z,54.53
2022-09-07T22:06:34.100Z,55.03
2022-09-07T22:09:02.158Z,55.17
2022-09-07T22:11:30.035Z,54.94
2022-09-07T22:13:59.145Z,56.34
2022-09-07T22:16:26.111Z,59.17
2022-09-07T22:18:57.041Z,57.70
2022-09-07T22:21:30.290Z,57.73
2022-09-07T22:24:00.215Z,57.63
2022-09-07T22:26:30.133Z,57.86
2022-09-07T22:28:58.359Z,56.65
2022-09-07T22:31:33.408Z,56.40
2022-09-07T22:34:04.983Z,56.57
2022-09-07T22:36:37.179Z,56.53
2022-09-07T22:39:06.813Z,56.57
2022-09-07T22:41:35.731Z,56.97
2022-09-07T22:44:02.851Z,57.98
2022-09-07T22:46:31.678Z,57.39
2022-09-07T22:48:59.296Z,57.39
2022-09-07T22:51:26.806Z,57.35
2022-09-07T22:53:57.573Z,57.62
2022-09-07T22:56:29.782Z,57.27
2022-09-07T22:59:05.252Z,57.65
2022-09-07T23:01:32.220Z,57.66
2022-09-07T23:03:59.625Z,57.33
2022-09-07T23:06:28.803Z,57.00
2022-09-07T23:08:57.378Z,57.78
2022-09-07T23:11:27.811Z,57.68
2022-09-07T23:13:58.903Z,57.75
2022-09-07T23:16:27.400Z,57.70
2022-09-07T23:18:55.339Z,57.63
2022-09-07T23:21:24.805Z,57.56
2022-09-07T23:23:57.167Z,57.31
2022-09-07T23:26:25.685Z,57.12
2022-09-07T23:28:56.487Z,57.08
2022-09-07T23:31:24.746Z,56.90
2022-09-07T23:33:54.226Z,57.29
2022-09-07T23:36:20.792Z,57.44
2022-09-07T23:38:47.643Z,57.84
2022-09-07T23:41:14.675Z,57.56
2022-09-07T23:43:41.521Z,57.25
2022-09-07T23:46:08.036Z,57.48
2022-09-07T23:48:34.782Z,57.73
2022-09-07T23:51:04.928Z,58.02
2022-09-07T23:53:31.805Z,58.96
2022-09-07T23:55:58.691Z,58.48
2022-09-07T23:58:25.259Z,58.48
